Terminal Aerodrome Forecast
Issued by NWS

Home | Current Version | Previous Version | Text Only | Print | Product List | Glossary On
Versions: 1 2 3 4 5 6 7 8 9 10 11 12 13 14 15 16 17 18 19 20 21 22 23 24 25 26
000
FTUS42 KMLB 271140
TAFSFB
TAF
KSFB 271140Z 2712/2812 18007KT P6SM SCT100 BKN250
     FM271400 22013G20KT P6SM SCT020 BKN120
     FM271600 24015G22KT P6SM VCTS SCT035CB BKN080
     FM272300 29013KT P6SM BKN035=

USA.gov is the U.S. government's official web portal to all federal, state and local government web resources and services.